createdAt,value
2022-10-03T00:00:00.292Z,880.4
2022-10-03T00:01:00.451Z,880.4
2022-10-03T00:02:00.349Z,880.4
2022-10-03T00:03:00.374Z,880.4
2022-10-03T00:04:00.282Z,880.4
2022-10-03T00:05:00.286Z,880.4
2022-10-03T00:06:00.299Z,880.4
2022-10-03T00:07:00.533Z,880.4
2022-10-03T00:08:00.291Z,880.4
2022-10-03T00:09:00.302Z,880.4
2022-10-03T00:10:00.324Z,880.4
2022-10-03T00:11:00.523Z,880.3
2022-10-03T00:12:00.827Z,880.4
2022-10-03T00:13:00.491Z,880.4
2022-10-03T00:14:00.293Z,880.4
2022-10-03T00:15:00.310Z,880.4
2022-10-03T00:16:00.366Z,880.3
2022-10-03T00:17:00.305Z,880.4
2022-10-03T00:18:00.304Z,880.3
2022-10-03T00:19:00.458Z,880.3
2022-10-03T00:20:00.297Z,880.4
2022-10-03T00:21:00.303Z,880.4
2022-10-03T00:22:00.287Z,880.4
2022-10-03T00:23:00.306Z,880.4
2022-10-03T00:24:00.291Z,880.4
2022-10-03T00:25:00.506Z,880.4
2022-10-03T00:26:00.440Z,880.4
2022-10-03T00:27:00.306Z,880.5
2022-10-03T00:28:00.329Z,880.5
2022-10-03T00:29:00.312Z,880.5
2022-10-03T00:30:00.299Z,880.5
2022-10-03T00:31:00.460Z,880.5
2022-10-03T00:32:00.326Z,880.5
2022-10-03T00:33:00.334Z,880.6
2022-10-03T00:34:00.369Z,880.5
2022-10-03T00:35:00.299Z,880.6
2022-10-03T00:36:00.320Z,880.5
2022-10-03T00:37:00.460Z,880.5
2022-10-03T00:38:00.300Z,880.5
2022-10-03T00:39:00.384Z,880.5
2022-10-03T00:40:00.297Z,880.4
2022-10-03T00:41:00.551Z,880.4
2022-10-03T00:42:00.358Z,880.4
2022-10-03T00:43:00.442Z,880.4
2022-10-03T00:44:00.363Z,880.3
2022-10-03T00:45:00.337Z,880.4
2022-10-03T00:46:00.294Z,880.4
2022-10-03T00:47:00.413Z,880.3
2022-10-03T00:48:00.345Z,880.3
2022-10-03T00:49:00.404Z,880.4
2022-10-03T00:50:00.330Z,880.4
2022-10-03T00:51:00.299Z,880.4
2022-10-03T00:52:00.293Z,880.4
2022-10-03T00:53:00.298Z,880.4
2022-10-03T00:54:00.278Z,880.4
2022-10-03T00:55:00.437Z,880.4
2022-10-03T00:56:00.392Z,880.4
2022-10-03T00:57:00.280Z,880.4
2022-10-03T00:58:00.285Z,880.4
2022-10-03T00:59:00.280Z,880.4
2022-10-03T01:00:00.318Z,880.4
2022-10-03T01:01:00.477Z,880.4
2022-10-03T01:02:00.360Z,880.4
2022-10-03T01:03:00.286Z,880.4
2022-10-03T01:04:00.319Z,880.4
2022-10-03T01:05:00.312Z,880.4
2022-10-03T01:06:00.307Z,880.4
2022-10-03T01:07:00.444Z,880.5
2022-10-03T01:08:00.306Z,880.4
2022-10-03T01:09:00.302Z,880.5
2022-10-03T01:10:00.302Z,880.5
2022-10-03T01:11:00.426Z,880.5
2022-10-03T01:12:00.320Z,880.5
2022-10-03T01:13:00.385Z,880.5
2022-10-03T01:14:00.293Z,880.5
2022-10-03T01:15:00.320Z,880.5
2022-10-03T01:16:00.335Z,880.5
2022-10-03T01:17:00.279Z,880.5
2022-10-03T01:18:00.307Z,880.5
2022-10-03T01:19:00.468Z,880.5
2022-10-03T01:20:00.292Z,880.5
2022-10-03T01:21:00.282Z,880.5
2022-10-03T01:22:00.280Z,880.4
2022-10-03T01:23:00.298Z,880.5
2022-10-03T01:24:00.298Z,880.4
2022-10-03T01:25:00.598Z,880.4
2022-10-03T01:26:00.326Z,880.5
2022-10-03T01:27:00.438Z,880.5
2022-10-03T01:28:00.344Z,880.5
2022-10-03T01:29:00.301Z,880.5
2022-10-03T01:30:00.318Z,880.5
2022-10-03T01:31:00.537Z,880.5
2022-10-03T01:32:00.341Z,880.5
2022-10-03T01:33:00.347Z,880.5
2022-10-03T01:34:00.329Z,880.5
2022-10-03T01:35:00.359Z,880.5
2022-10-03T01:36:00.386Z,880.5
2022-10-03T01:37:00.466Z,880.5
2022-10-03T01:38:00.291Z,880.5
2022-10-03T01:39:00.403Z,880.5
2022-10-03T01:40:00.344Z,880.5
2022-10-03T01:41:00.342Z,880.5
2022-10-03T01:42:00.543Z,880.5
2022-10-03T01:43:00.537Z,880.4
2022-10-03T01:44:00.364Z,880.5
2022-10-03T01:45:00.309Z,880.5
2022-10-03T01:46:00.336Z,880.5
2022-10-03T01:47:00.350Z,880.5
2022-10-03T01:48:00.293Z,880.5
2022-10-03T01:49:00.471Z,880.5
2022-10-03T01:50:00.330Z,880.6
2022-10-03T01:51:00.296Z,880.5
2022-10-03T01:52:00.299Z,880.5
2022-10-03T01:53:00.296Z,880.5
2022-10-03T01:54:00.292Z,880.5
2022-10-03T01:55:00.506Z,880.5
2022-10-03T01:56:00.310Z,880.5
2022-10-03T01:57:00.364Z,880.5
2022-10-03T01:58:00.310Z,880.5
2022-10-03T01:59:00.310Z,880.5
2022-10-03T02:00:00.335Z,880.5
2022-10-03T02:01:00.482Z,880.5
2022-10-03T02:02:00.332Z,880.4
2022-10-03T02:03:00.295Z,880.4
2022-10-03T02:04:00.316Z,880.5
2022-10-03T02:05:00.281Z,880.5
2022-10-03T02:06:00.319Z,880.5
2022-10-03T02:07:00.415Z,880.5
2022-10-03T02:08:00.308Z,880.5
2022-10-03T02:09:00.311Z,880.5
2022-10-03T02:10:00.293Z,880.5
2022-10-03T02:11:00.300Z,880.5
2022-10-03T02:12:00.423Z,880.5
2022-10-03T02:13:00.509Z,880.5
2022-10-03T02:14:00.357Z,880.5
2022-10-03T02:15:00.299Z,880.6
2022-10-03T02:16:00.375Z,880.6
2022-10-03T02:17:00.315Z,880.6
2022-10-03T02:18:00.299Z,880.6
2022-10-03T02:19:00.541Z,880.6
2022-10-03T02:20:00.279Z,880.6
2022-10-03T02:21:00.296Z,880.5
2022-10-03T02:22:00.303Z,880.6
2022-10-03T02:23:00.297Z,880.6
2022-10-03T02:24:00.300Z,880.6
2022-10-03T02:25:00.436Z,880.5
2022-10-03T02:26:00.321Z,880.5
2022-10-03T02:27:00.383Z,880.5
2022-10-03T02:28:00.364Z,880.5
2022-10-03T02:29:00.344Z,880.5
2022-10-03T02:30:00.282Z,880.6
2022-10-03T02:31:00.473Z,880.5
2022-10-03T02:32:00.365Z,880.6
2022-10-03T02:33:00.347Z,880.5
2022-10-03T02:34:00.364Z,880.5
2022-10-03T02:35:00.297Z,880.5
2022-10-03T02:36:00.318Z,880.6
2022-10-03T02:37:00.423Z,880.6
2022-10-03T02:38:00.338Z,880.5
2022-10-03T02:39:00.289Z,880.6
2022-10-03T02:40:00.366Z,880.5
2022-10-03T02:41:00.327Z,880.5
2022-10-03T02:42:00.533Z,880.5
2022-10-03T02:43:00.453Z,880.5
2022-10-03T02:44:00.377Z,880.6
2022-10-03T02:45:00.294Z,880.5
2022-10-03T02:46:00.395Z,880.5
2022-10-03T02:47:00.293Z,880.5
2022-10-03T02:48:27.123Z,880.5
2022-10-03T02:49:00.509Z,880.5
2022-10-03T02:50:00.277Z,880.5
2022-10-03T02:51:00.296Z,880.5
2022-10-03T02:52:00.294Z,880.5
2022-10-03T02:53:00.294Z,880.5
2022-10-03T02:54:00.289Z,880.5
2022-10-03T02:55:00.438Z,880.5
2022-10-03T02:56:00.292Z,880.5
2022-10-03T02:57:00.412Z,880.5
2022-10-03T02:58:00.692Z,880.5
2022-10-03T02:59:00.306Z,880.5
2022-10-03T03:00:00.339Z,880.5
2022-10-03T03:01:00.498Z,880.5
2022-10-03T03:02:00.332Z,880.6
2022-10-03T03:03:00.372Z,880.6
2022-10-03T03:04:00.321Z,880.5
2022-10-03T03:05:00.278Z,880.6
2022-10-03T03:06:00.281Z,880.5
2022-10-03T03:07:00.441Z,880.5
2022-10-03T03:08:00.284Z,880.5
2022-10-03T03:09:00.333Z,880.5
2022-10-03T03:10:00.312Z,880.5
2022-10-03T03:11:00.298Z,880.5
2022-10-03T03:12:00.441Z,880.5
2022-10-03T03:13:00.408Z,880.5
2022-10-03T03:14:00.296Z,880.6
2022-10-03T03:15:00.287Z,880.6
2022-10-03T03:16:00.345Z,880.6
2022-10-03T03:17:00.313Z,880.6
2022-10-03T03:18:00.284Z,880.6
2022-10-03T03:19:00.384Z,880.6
2022-10-03T03:20:00.297Z,880.6
2022-10-03T03:21:00.280Z,880.6
2022-10-03T03:22:00.292Z,880.7
2022-10-03T03:23:00.282Z,880.7
2022-10-03T03:24:00.307Z,880.7
2022-10-03T03:25:00.538Z,880.7
2022-10-03T03:26:00.295Z,880.7
2022-10-03T03:27:00.471Z,880.7
2022-10-03T03:28:00.422Z,880.7
2022-10-03T03:29:00.290Z,880.8
2022-10-03T03:30:00.393Z,880.8
2022-10-03T03:31:00.521Z,880.8
2022-10-03T03:32:00.379Z,880.8
2022-10-03T03:33:00.355Z,880.9
2022-10-03T03:34:00.356Z,880.9
2022-10-03T03:35:00.324Z,880.8
2022-10-03T03:36:00.338Z,880.9
2022-10-03T03:37:00.505Z,880.9
2022-10-03T03:38:00.309Z,880.9
2022-10-03T03:39:00.391Z,880.9
2022-10-03T03:40:00.285Z,880.9
2022-10-03T03:41:00.333Z,880.9
2022-10-03T03:42:00.422Z,880.9
2022-10-03T03:43:00.442Z,880.9
2022-10-03T03:44:00.301Z,880.9
2022-10-03T03:45:00.310Z,881.0
2022-10-03T03:46:00.358Z,881.0
2022-10-03T03:47:00.332Z,881.0
2022-10-03T03:48:00.300Z,881.0
2022-10-03T03:49:00.488Z,881.0
2022-10-03T03:50:00.310Z,881.0
2022-10-03T03:51:00.301Z,881.0
2022-10-03T03:52:00.297Z,881.0
2022-10-03T03:53:00.280Z,881.0
2022-10-03T03:54:00.295Z,881.1
2022-10-03T03:55:00.444Z,881.0
2022-10-03T03:56:00.285Z,881.1
2022-10-03T03:57:00.449Z,881.1
2022-10-03T03:58:00.298Z,881.1
2022-10-03T03:59:00.288Z,881.1
2022-10-03T04:00:00.324Z,881.0
2022-10-03T04:01:00.567Z,881.0
2022-10-03T04:02:00.320Z,881.0
2022-10-03T04:03:00.294Z,881.0
2022-10-03T04:04:00.283Z,881.1
2022-10-03T04:05:00.295Z,881.0
2022-10-03T04:06:00.300Z,881.1
2022-10-03T04:07:00.610Z,881.1
2022-10-03T04:08:00.311Z,881.1
2022-10-03T04:09:00.296Z,881.1
2022-10-03T04:10:00.337Z,881.1
2022-10-03T04:11:00.298Z,881.1
2022-10-03T04:12:00.429Z,881.1
2022-10-03T04:13:00.390Z,881.1
2022-10-03T04:14:00.275Z,881.1
2022-10-03T04:15:00.309Z,881.1
2022-10-03T04:16:00.296Z,881.1
2022-10-03T04:17:00.292Z,881.1
2022-10-03T04:18:00.313Z,881.1
2022-10-03T04:19:00.481Z,881.1
2022-10-03T04:20:00.319Z,881.1
2022-10-03T04:21:00.301Z,881.1
2022-10-03T04:22:00.298Z,881.2
2022-10-03T04:23:00.295Z,881.1
2022-10-03T04:24:00.331Z,881.2
2022-10-03T04:25:00.471Z,881.1
2022-10-03T04:26:00.321Z,881.1
2022-10-03T04:27:00.485Z,881.2
2022-10-03T04:28:00.474Z,881.1
2022-10-03T04:29:00.289Z,881.1
2022-10-03T04:30:00.341Z,881.2
2022-10-03T04:31:00.648Z,881.1
2022-10-03T04:32:00.353Z,881.1
2022-10-03T04:33:00.299Z,881.2
2022-10-03T04:34:00.334Z,881.2
2022-10-03T04:35:00.344Z,881.2
2022-10-03T04:36:00.278Z,881.2
2022-10-03T04:37:00.458Z,881.2
2022-10-03T04:38:00.313Z,881.2
2022-10-03T04:39:00.329Z,881.2
2022-10-03T04:40:00.364Z,881.2
2022-10-03T04:41:00.366Z,881.2
2022-10-03T04:42:00.362Z,881.2
2022-10-03T04:43:00.549Z,881.2
2022-10-03T04:44:00.398Z,881.2
2022-10-03T04:45:00.283Z,881.2
2022-10-03T04:46:00.330Z,881.2
2022-10-03T04:47:00.313Z,881.2
2022-10-03T04:48:00.297Z,881.2
2022-10-03T04:49:00.432Z,881.2
2022-10-03T04:50:00.300Z,881.2
2022-10-03T04:51:00.292Z,881.2
2022-10-03T04:52:00.278Z,881.2
2022-10-03T04:53:00.318Z,881.3
2022-10-03T04:54:00.311Z,881.3
2022-10-03T04:55:00.431Z,881.3
2022-10-03T04:56:00.313Z,881.3
2022-10-03T04:57:00.302Z,881.3
2022-10-03T04:58:04.759Z,881.3
2022-10-03T04:59:00.285Z,881.3
2022-10-03T05:00:00.333Z,881.3
2022-10-03T05:01:00.554Z,881.3
2022-10-03T05:02:00.412Z,881.3
2022-10-03T05:03:00.289Z,881.3
2022-10-03T05:04:00.296Z,881.3
2022-10-03T05:05:00.312Z,881.3
2022-10-03T05:06:00.299Z,881.3
2022-10-03T05:07:00.411Z,881.3
2022-10-03T05:08:00.308Z,881.3
2022-10-03T05:09:00.284Z,881.4
2022-10-03T05:10:05.309Z,881.3
2022-10-03T05:11:00.295Z,881.3
2022-10-03T05:12:00.314Z,881.4
2022-10-03T05:13:00.527Z,881.4
2022-10-03T05:14:00.294Z,881.4
2022-10-03T05:15:00.286Z,881.4
2022-10-03T05:16:00.294Z,881.4
2022-10-03T05:17:00.350Z,881.4
2022-10-03T05:18:00.282Z,881.4
2022-10-03T05:19:00.462Z,881.4
2022-10-03T05:20:00.309Z,881.4
2022-10-03T05:21:00.294Z,881.4
2022-10-03T05:22:00.308Z,881.4
2022-10-03T05:23:00.299Z,881.4
2022-10-03T05:24:00.303Z,881.4
2022-10-03T05:25:00.531Z,881.5
2022-10-03T05:26:23.091Z,881.5
2022-10-03T05:27:00.360Z,881.4
2022-10-03T05:28:00.606Z,881.4
2022-10-03T05:29:00.428Z,881.4
2022-10-03T05:30:00.352Z,881.5
2022-10-03T05:31:00.383Z,881.5
2022-10-03T05:32:00.333Z,881.5
2022-10-03T05:33:03.879Z,881.5
2022-10-03T05:34:00.339Z,881.5
2022-10-03T05:35:00.301Z,881.5
2022-10-03T05:36:00.372Z,881.5
2022-10-03T05:37:00.471Z,881.5
2022-10-03T05:38:00.283Z,881.5
2022-10-03T05:39:00.310Z,881.5
2022-10-03T05:40:00.282Z,881.5
2022-10-03T05:41:00.283Z,881.5
2022-10-03T05:42:21.600Z,881.5
2022-10-03T05:43:00.514Z,881.5
2022-10-03T05:44:00.557Z,881.5
2022-10-03T05:45:00.307Z,881.5
2022-10-03T05:46:00.356Z,881.5
2022-10-03T05:47:00.277Z,881.5
2022-10-03T05:48:00.281Z,881.5
2022-10-03T05:49:00.434Z,881.5
2022-10-03T05:50:00.306Z,881.5
2022-10-03T05:51:00.276Z,881.5
2022-10-03T05:52:00.310Z,881.5
2022-10-03T05:53:00.297Z,881.5
2022-10-03T05:54:00.314Z,881.5
2022-10-03T05:55:00.460Z,881.5
2022-10-03T05:56:00.297Z,881.5
2022-10-03T05:57:00.283Z,881.5
2022-10-03T05:58:00.316Z,881.5
2022-10-03T05:59:00.501Z,881.5
2022-10-03T06:00:00.310Z,881.5
2022-10-03T06:01:00.432Z,881.5
2022-10-03T06:02:00.322Z,881.5
2022-10-03T06:03:00.443Z,881.5
2022-10-03T06:04:05.049Z,881.5
2022-10-03T06:05:00.306Z,881.5
2022-10-03T06:06:00.312Z,881.5
2022-10-03T06:07:00.429Z,881.5
2022-10-03T06:08:00.314Z,881.5
2022-10-03T06:09:00.311Z,881.5
2022-10-03T06:10:00.280Z,881.5
2022-10-03T06:11:00.335Z,881.5
2022-10-03T06:12:00.314Z,881.5
2022-10-03T06:13:00.438Z,881.5
2022-10-03T06:14:00.385Z,881.5
2022-10-03T06:15:00.394Z,881.5
2022-10-03T06:16:00.323Z,881.5
2022-10-03T06:17:00.297Z,881.5
2022-10-03T06:18:00.295Z,881.5
2022-10-03T06:19:00.418Z,881.5
2022-10-03T06:20:00.314Z,881.5
2022-10-03T06:21:00.330Z,881.5
2022-10-03T06:22:00.344Z,881.5
2022-10-03T06:23:04.944Z,881.5
2022-10-03T06:24:00.366Z,881.5
2022-10-03T06:25:00.597Z,881.5
2022-10-03T06:26:00.297Z,881.5
2022-10-03T06:27:00.278Z,881.5
2022-10-03T06:28:00.383Z,881.5
2022-10-03T06:29:00.368Z,881.5
2022-10-03T06:30:00.488Z,881.5
2022-10-03T06:31:00.458Z,881.5
2022-10-03T06:32:00.292Z,881.5
2022-10-03T06:33:00.281Z,881.5
2022-10-03T06:34:00.377Z,881.5
2022-10-03T06:35:00.739Z,881.5
2022-10-03T06:36:00.363Z,881.4
2022-10-03T06:37:00.522Z,881.5
2022-10-03T06:38:00.303Z,881.4
2022-10-03T06:39:00.280Z,881.4
2022-10-03T06:40:00.298Z,881.4
2022-10-03T06:41:00.322Z,881.5
2022-10-03T06:42:00.338Z,881.4
2022-10-03T06:43:00.609Z,881.4
2022-10-03T06:44:00.298Z,881.4
2022-10-03T06:45:00.445Z,881.4
2022-10-03T06:46:00.464Z,881.4
2022-10-03T06:47:00.297Z,881.4
2022-10-03T06:48:00.294Z,881.4
2022-10-03T06:49:00.528Z,881.4
2022-10-03T06:50:00.292Z,881.4
2022-10-03T06:51:00.305Z,881.4
2022-10-03T06:52:00.335Z,881.4
2022-10-03T06:53:00.312Z,881.4
2022-10-03T06:54:00.312Z,881.4
2022-10-03T06:55:00.457Z,881.3
2022-10-03T06:56:00.293Z,881.3
2022-10-03T06:57:00.280Z,881.4
2022-10-03T06:58:00.285Z,881.3
2022-10-03T06:59:00.313Z,881.4
2022-10-03T07:00:00.305Z,881.4
2022-10-03T07:01:00.567Z,881.3
2022-10-03T07:02:00.387Z,881.3
2022-10-03T07:03:00.419Z,881.4
2022-10-03T07:04:00.294Z,881.3
2022-10-03T07:05:00.312Z,881.3
2022-10-03T07:06:00.311Z,881.3
2022-10-03T07:07:00.430Z,881.4
2022-10-03T07:08:00.296Z,881.4
2022-10-03T07:09:00.329Z,881.3
2022-10-03T07:10:00.291Z,881.3
2022-10-03T07:11:00.299Z,881.3
2022-10-03T07:12:00.332Z,881.3
2022-10-03T07:13:00.473Z,881.3
2022-10-03T07:14:00.296Z,881.3
2022-10-03T07:15:00.314Z,881.3
2022-10-03T07:16:25.895Z,881.3
2022-10-03T07:17:00.410Z,881.3
2022-10-03T07:18:00.310Z,881.3
2022-10-03T07:19:00.420Z,881.3
2022-10-03T07:20:00.294Z,881.3
2022-10-03T07:21:00.327Z,881.3
2022-10-03T07:22:00.340Z,881.3
2022-10-03T07:23:00.342Z,881.3
2022-10-03T07:24:00.325Z,881.3
2022-10-03T07:25:00.432Z,881.3
2022-10-03T07:26:00.281Z,881.3
2022-10-03T07:27:00.372Z,881.3
2022-10-03T07:28:00.429Z,881.3
2022-10-03T07:29:00.306Z,881.3
2022-10-03T07:30:00.299Z,881.3
2022-10-03T07:31:00.608Z,881.3
2022-10-03T07:32:00.362Z,881.2
2022-10-03T07:33:00.374Z,881.3
2022-10-03T07:34:00.299Z,881.2
2022-10-03T07:35:00.381Z,881.2
2022-10-03T07:36:00.309Z,881.3
2022-10-03T07:37:00.460Z,881.3
2022-10-03T07:38:00.351Z,881.3
2022-10-03T07:39:00.390Z,881.3
2022-10-03T07:40:00.303Z,881.3
2022-10-03T07:41:00.309Z,881.3
2022-10-03T07:42:00.297Z,881.3
2022-10-03T07:43:00.456Z,881.2
2022-10-03T07:44:00.314Z,881.3
2022-10-03T07:45:00.328Z,881.2
2022-10-03T07:46:00.321Z,881.2
2022-10-03T07:47:00.432Z,881.2
2022-10-03T07:48:00.486Z,881.2
2022-10-03T07:49:00.400Z,881.2
2022-10-03T07:50:00.313Z,881.2
2022-10-03T07:51:00.303Z,881.2
2022-10-03T07:52:00.293Z,881.2
2022-10-03T07:53:00.283Z,881.2
2022-10-03T07:54:00.314Z,881.2
2022-10-03T07:55:00.450Z,881.2
2022-10-03T07:56:00.282Z,881.2
2022-10-03T07:57:00.319Z,881.2
2022-10-03T07:58:00.278Z,881.2
2022-10-03T07:59:00.317Z,881.1
2022-10-03T08:00:00.290Z,881.1
2022-10-03T08:01:00.443Z,881.1
2022-10-03T08:02:00.301Z,881.1
2022-10-03T08:03:00.504Z,881.1
2022-10-03T08:04:00.393Z,881.2
2022-10-03T08:05:00.390Z,881.2
2022-10-03T08:06:00.284Z,881.1
2022-10-03T08:07:00.411Z,881.1
2022-10-03T08:08:00.511Z,881.1
2022-10-03T08:09:00.421Z,881.1
2022-10-03T08:10:00.292Z,881.1
2022-10-03T08:11:00.324Z,881.1
2022-10-03T08:12:00.407Z,881.0
2022-10-03T08:13:00.617Z,881.0
2022-10-03T08:14:00.281Z,881.0
2022-10-03T08:15:00.300Z,881.0
2022-10-03T08:16:00.352Z,881.0
2022-10-03T08:17:00.280Z,881.0
2022-10-03T08:18:00.502Z,881.0
2022-10-03T08:19:00.423Z,881.0
2022-10-03T08:20:00.306Z,881.0
2022-10-03T08:21:00.322Z,881.0
2022-10-03T08:22:00.346Z,880.9
2022-10-03T08:23:00.386Z,880.9
2022-10-03T08:24:00.392Z,880.9
2022-10-03T08:25:02.872Z,880.9
2022-10-03T08:26:00.337Z,880.9
2022-10-03T08:27:00.350Z,881.0
2022-10-03T08:28:00.361Z,880.9
2022-10-03T08:29:00.348Z,880.9
2022-10-03T08:30:00.349Z,881.0
2022-10-03T08:31:00.529Z,880.9
2022-10-03T08:32:00.292Z,880.9
2022-10-03T08:33:00.441Z,880.9
2022-10-03T08:34:00.482Z,880.9
2022-10-03T08:35:00.298Z,880.9
2022-10-03T08:36:00.291Z,880.9
2022-10-03T08:37:00.519Z,880.9
2022-10-03T08:38:00.280Z,880.9
2022-10-03T08:39:00.301Z,880.9
2022-10-03T08:40:00.298Z,880.9
2022-10-03T08:41:00.323Z,880.9
2022-10-03T08:42:00.287Z,880.9
2022-10-03T08:43:00.494Z,880.9
2022-10-03T08:44:00.307Z,880.9
2022-10-03T08:45:00.280Z,880.9
2022-10-03T08:46:00.386Z,880.9
2022-10-03T08:47:00.297Z,880.9
2022-10-03T08:48:00.295Z,880.9
2022-10-03T08:49:00.463Z,880.9
2022-10-03T08:50:05.052Z,880.9
2022-10-03T08:51:00.297Z,880.8
2022-10-03T08:52:00.295Z,880.9
2022-10-03T08:53:00.285Z,880.9
2022-10-03T08:54:00.298Z,880.9
2022-10-03T08:55:00.415Z,880.9
2022-10-03T08:56:00.300Z,880.8
2022-10-03T08:57:00.303Z,880.9
2022-10-03T08:58:00.327Z,880.9
2022-10-03T08:59:00.296Z,880.9
2022-10-03T09:00:00.317Z,880.8
2022-10-03T09:01:00.547Z,880.9
2022-10-03T09:02:00.464Z,880.9
2022-10-03T09:03:31.462Z,880.8
2022-10-03T09:04:00.492Z,880.8
2022-10-03T09:05:00.336Z,880.9
2022-10-03T09:06:00.324Z,880.9
2022-10-03T09:07:18.039Z,880.9
2022-10-03T09:08:00.301Z,880.8
2022-10-03T09:09:00.285Z,880.8
2022-10-03T09:10:00.307Z,880.8
2022-10-03T09:11:00.321Z,880.8
2022-10-03T09:12:00.293Z,880.8
2022-10-03T09:13:00.396Z,880.8
2022-10-03T09:14:00.292Z,880.8
2022-10-03T09:15:00.309Z,880.8
2022-10-03T09:16:00.360Z,880.8
2022-10-03T09:17:00.277Z,880.8
2022-10-03T09:18:00.302Z,880.7
2022-10-03T09:19:00.595Z,880.8
2022-10-03T09:20:00.341Z,880.8
2022-10-03T09:21:00.301Z,880.8
2022-10-03T09:22:00.372Z,880.8
2022-10-03T09:23:00.304Z,880.7
2022-10-03T09:24:00.309Z,880.8
2022-10-03T09:25:00.520Z,880.8
2022-10-03T09:26:00.370Z,880.8
2022-10-03T09:27:00.347Z,880.7
2022-10-03T09:28:00.384Z,880.7
2022-10-03T09:29:00.350Z,880.7
2022-10-03T09:30:00.351Z,880.7
2022-10-03T09:31:00.619Z,880.7
2022-10-03T09:32:00.293Z,880.7
2022-10-03T09:33:00.298Z,880.7
2022-10-03T09:34:00.358Z,880.7
2022-10-03T09:35:04.810Z,880.7
2022-10-03T09:36:00.372Z,880.7
2022-10-03T09:37:00.394Z,880.7
2022-10-03T09:38:00.302Z,880.6
2022-10-03T09:39:00.300Z,880.7
2022-10-03T09:40:00.303Z,880.7
2022-10-03T09:41:00.373Z,880.6
2022-10-03T09:42:00.310Z,880.7
2022-10-03T09:43:00.473Z,880.7
2022-10-03T09:44:00.295Z,880.6
2022-10-03T09:45:00.309Z,880.7
2022-10-03T09:46:00.283Z,880.6
2022-10-03T09:47:00.372Z,880.6
2022-10-03T09:48:00.286Z,880.7
2022-10-03T09:49:00.598Z,880.7
2022-10-03T09:50:00.404Z,880.6
2022-10-03T09:51:00.522Z,880.7
2022-10-03T09:52:00.292Z,880.6
2022-10-03T09:53:00.300Z,880.6
2022-10-03T09:54:00.298Z,880.6
2022-10-03T09:55:00.470Z,880.6
2022-10-03T09:56:00.282Z,880.6
2022-10-03T09:57:00.282Z,880.6
2022-10-03T09:58:00.297Z,880.6
2022-10-03T09:59:00.302Z,880.6
2022-10-03T10:00:00.285Z,880.6
2022-10-03T10:01:00.473Z,880.6
2022-10-03T10:02:00.299Z,880.6
2022-10-03T10:03:00.277Z,880.6
2022-10-03T10:04:00.343Z,880.6
2022-10-03T10:05:00.403Z,880.6
2022-10-03T10:06:00.426Z,880.6
2022-10-03T10:07:00.447Z,880.6
2022-10-03T10:08:00.281Z,880.6
2022-10-03T10:09:00.307Z,880.6
2022-10-03T10:10:00.309Z,880.6
2022-10-03T10:11:00.318Z,880.6
2022-10-03T10:12:00.284Z,880.6
2022-10-03T10:13:00.424Z,880.6
2022-10-03T10:14:07.593Z,880.6
2022-10-03T10:15:00.317Z,880.6
2022-10-03T10:16:00.367Z,880.6
2022-10-03T10:17:00.324Z,880.5
2022-10-03T10:18:00.321Z,880.5
2022-10-03T10:19:00.421Z,880.6
2022-10-03T10:20:00.369Z,880.6
2022-10-03T10:21:00.313Z,880.5
2022-10-03T10:22:00.360Z,880.5
2022-10-03T10:23:00.400Z,880.5
2022-10-03T10:24:00.320Z,880.5
2022-10-03T10:25:00.658Z,880.5
2022-10-03T10:26:00.362Z,880.5
2022-10-03T10:27:00.367Z,880.5
2022-10-03T10:28:00.484Z,880.5
2022-10-03T10:29:00.339Z,880.5
2022-10-03T10:30:00.284Z,880.4
2022-10-03T10:31:00.626Z,880.5
2022-10-03T10:32:00.301Z,880.4
2022-10-03T10:33:00.319Z,880.4
2022-10-03T10:34:00.335Z,880.4
2022-10-03T10:35:00.363Z,880.4
2022-10-03T10:36:00.324Z,880.4
2022-10-03T10:37:00.497Z,880.4
2022-10-03T10:38:00.322Z,880.4
2022-10-03T10:39:00.282Z,880.4
2022-10-03T10:40:00.308Z,880.4
2022-10-03T10:41:03.705Z,880.4
2022-10-03T10:42:00.311Z,880.4
2022-10-03T10:43:00.446Z,880.4
2022-10-03T10:44:00.300Z,880.3
2022-10-03T10:45:00.288Z,880.3
2022-10-03T10:46:00.294Z,880.3
2022-10-03T10:47:00.406Z,880.3
2022-10-03T10:48:00.316Z,880.3
2022-10-03T10:49:03.834Z,880.3
2022-10-03T10:50:00.309Z,880.4
2022-10-03T10:51:00.301Z,880.3
2022-10-03T10:52:00.420Z,880.4
2022-10-03T10:53:00.357Z,880.4
2022-10-03T10:54:00.322Z,880.3
2022-10-03T10:55:00.451Z,880.3
2022-10-03T10:56:00.300Z,880.3
2022-10-03T10:57:00.373Z,880.3
2022-10-03T10:58:00.292Z,880.3
2022-10-03T10:59:00.355Z,880.3
2022-10-03T11:00:00.362Z,880.3
2022-10-03T11:01:00.580Z,880.3
2022-10-03T11:02:00.398Z,880.3
2022-10-03T11:03:00.382Z,880.3
2022-10-03T11:04:00.286Z,880.3
2022-10-03T11:05:00.391Z,880.3
2022-10-03T11:06:00.289Z,880.3
2022-10-03T11:07:00.483Z,880.3
2022-10-03T11:08:00.350Z,880.3
2022-10-03T11:09:00.344Z,880.3
2022-10-03T11:10:00.371Z,880.3
2022-10-03T11:11:00.305Z,880.3
2022-10-03T11:12:00.278Z,880.3
2022-10-03T11:13:00.438Z,880.3
2022-10-03T11:14:00.313Z,880.3
2022-10-03T11:15:00.377Z,880.3
2022-10-03T11:16:00.441Z,880.3
2022-10-03T11:17:00.330Z,880.3
2022-10-03T11:18:00.305Z,880.3
2022-10-03T11:19:00.465Z,880.3
2022-10-03T11:20:00.303Z,880.3
2022-10-03T11:21:00.296Z,880.3
2022-10-03T11:22:00.424Z,880.3
2022-10-03T11:23:04.594Z,880.2
2022-10-03T11:24:00.338Z,880.2
2022-10-03T11:25:00.442Z,880.2
2022-10-03T11:26:00.350Z,880.3
2022-10-03T11:27:00.323Z,880.2
2022-10-03T11:28:00.302Z,880.2
2022-10-03T11:29:00.305Z,880.2
2022-10-03T11:30:00.337Z,880.2
2022-10-03T11:31:00.517Z,880.3
2022-10-03T11:32:00.276Z,880.2
2022-10-03T11:33:00.304Z,880.3
2022-10-03T11:34:00.337Z,880.2
2022-10-03T11:35:00.341Z,880.2
2022-10-03T11:36:00.375Z,880.3
2022-10-03T11:37:00.637Z,880.3
2022-10-03T11:38:00.406Z,880.3
2022-10-03T11:39:00.293Z,880.3
2022-10-03T11:40:00.287Z,880.3
2022-10-03T11:41:00.294Z,880.3
2022-10-03T11:42:00.282Z,880.3
2022-10-03T11:43:00.539Z,880.3
2022-10-03T11:44:01.942Z,880.3
2022-10-03T11:45:00.307Z,880.3
2022-10-03T11:46:00.341Z,880.3
2022-10-03T11:47:00.301Z,880.3
2022-10-03T11:48:00.284Z,880.3
2022-10-03T11:49:00.438Z,880.3
2022-10-03T11:50:00.301Z,880.3
2022-10-03T11:51:00.358Z,880.3
2022-10-03T11:52:00.300Z,880.3
2022-10-03T11:53:00.538Z,880.3
2022-10-03T11:54:19.503Z,880.3
2022-10-03T11:55:00.496Z,880.3
2022-10-03T11:56:00.297Z,880.3
2022-10-03T11:57:00.318Z,880.3
2022-10-03T11:58:00.319Z,880.3
2022-10-03T11:59:00.308Z,880.3
2022-10-03T12:00:00.399Z,880.3
2022-10-03T12:01:00.428Z,880.4
2022-10-03T12:02:00.493Z,880.3
2022-10-03T12:03:00.501Z,880.4
2022-10-03T12:04:00.306Z,880.3
2022-10-03T12:05:00.316Z,880.3
2022-10-03T12:06:00.411Z,880.3
2022-10-03T12:07:00.733Z,880.3
2022-10-03T12:08:00.312Z,880.3
2022-10-03T12:09:00.505Z,880.3
2022-10-03T12:10:00.296Z,880.3
2022-10-03T12:11:00.286Z,880.3
2022-10-03T12:12:00.315Z,880.3
2022-10-03T12:13:00.456Z,880.3
2022-10-03T12:14:00.286Z,880.2
2022-10-03T12:15:00.293Z,880.3
2022-10-03T12:16:00.285Z,880.2
2022-10-03T12:17:00.292Z,880.3
2022-10-03T12:18:00.289Z,880.2
2022-10-03T12:19:00.432Z,880.3
2022-10-03T12:20:00.347Z,880.3
2022-10-03T12:21:00.369Z,880.2
2022-10-03T12:22:00.347Z,880.2
2022-10-03T12:23:00.326Z,880.2
2022-10-03T12:24:00.487Z,880.2
2022-10-03T12:25:00.444Z,880.2
2022-10-03T12:26:00.297Z,880.3
2022-10-03T12:27:00.303Z,880.3
2022-10-03T12:28:00.393Z,880.3
2022-10-03T12:29:00.338Z,880.3
2022-10-03T12:30:00.358Z,880.2
2022-10-03T12:31:00.533Z,880.3
2022-10-03T12:32:00.342Z,880.2
2022-10-03T12:33:00.305Z,880.2
2022-10-03T12:34:00.352Z,880.3
2022-10-03T12:35:00.362Z,880.2
2022-10-03T12:36:00.376Z,880.2
2022-10-03T12:37:00.511Z,880.3
2022-10-03T12:38:00.287Z,880.2
2022-10-03T12:39:00.435Z,880.2
2022-10-03T12:40:00.283Z,880.2
2022-10-03T12:41:00.285Z,880.2
2022-10-03T12:42:00.300Z,880.2
2022-10-03T12:43:00.505Z,880.2
2022-10-03T12:44:00.298Z,880.2
2022-10-03T12:45:00.282Z,880.2
2022-10-03T12:46:00.401Z,880.2
2022-10-03T12:47:03.121Z,880.2
2022-10-03T12:48:00.315Z,880.2
2022-10-03T12:49:00.650Z,880.2
2022-10-03T12:50:00.321Z,880.3
2022-10-03T12:51:00.346Z,880.2
2022-10-03T12:52:00.305Z,880.2